Airport ID:CYTF
Update Time (UTC):07/03/2021 04:44
Wind Speed (Knots):13
Wind Direction (Magnetic):320
Temperature (°C):-12.9
Dew Point (°C):-17.7
Humidity (%):68
Altimeter (inHg):30.1
Density Altitude (Feet):\\\\
Visibility (Miles):6
Clouds (Hundreds of feet):OVC032
Present Weather:
METAR:METAR CYTF 070430Z AUTO 31012KT 10SM OVC033 M13/M18 A3010

The data displayed is for advisory purposes only and is not to be used for flight planning or operations.

This page is not automatically refreshed. Reload the page to see current data.